Questo sito fa uso di cookie per migliorare l’esperienza di navigazione degli utenti e per raccogliere informazioni sull’utilizzo del sito stesso. Proseguendo nella navigazione si accetta l’uso dei cookie; in caso contrario è possibile abbandonare il sito.

[source: ADDS]
METAR
LIPB 261950Z VRB01KT 9999 BKN100 18/14 Q1013 RMK MON LIB =
TAF LIPB 261700Z 2618/2718 VRB05KT 9999 FEW040 SCT060 TEMPO 2712/2718 SHRA LIPC 261955Z 10010KT 7000 -RA SCT010 SCT020 16/15 Q1012 RMK OVC VIS MIN 7000 WIND THR11 /////KT WIND THR29 10010KT WHT =
TAF LIPC 262000Z 2621/2706 07010KT 9999 SCT010 BKN025 TEMPO 2621/2706 5000 RA PROB30 TEMPO 2621/2706 07010G25KT 3000 SHRA FEW020CB BKN030 LIPE 262020Z 04004KT 7000 -RA FEW015 BKN030 17/15 Q1012 =
TAF LIPE 261700Z 2618/2718 07010KT 9999 SCT020 BKN040 BECMG 2618/2718 4000 RA BKN010 BKN020 LIPF 261755Z 08003KT 9999 BKN025 SCT070 20/16 Q1013 RMK OVC VIS MIN 9999 =
LIPH 262020Z 12003KT 070V150 CAVOK 19/15 Q1014 =
TAF LIPH 261700Z 2618/2718 VRB06KT 9999 SCT020 TEMPO 2700/2709 3000 RA BKN014 BECMG 2708/2710 04010KT TEMPO 2709/2718 SHRA LIPL 261955Z 07005KT 9999 SCT040 18/15 Q1013 RMK BKN SCT090 VIS MIN 9999 WIND THR31 06006KT WIND THR13 06005KT BLU =
TAF LIPL 262000Z 2621/2706 12008KT 9999 SCT030 BKN050 TEMPO 2700/2706 5000 RA LIPO 261950Z 09006KT 9999 SCT060 18/14 Q1013 =
TAF LIPO 261700Z 2618/2718 VRB05KT 9999 SCT030 BKN070 TEMPO 2618/2621 SHRA BECMG 2704/2706 RA LIPQ 262020Z VRB01KT CAVOK 18/15 Q1014 =
TAF LIPQ 261700Z 2618/2718 VRB05KT 9999 SCT020 BKN060 TEMPO 2706/2718 RA LIPR 262020Z 09009KT 5000 -RA BR BKN010 SCT020 16/15 Q1012 =
TAF LIPR 262000Z 2621/2706 10010KT 5000 RA BR SCT010 BKN020 LIPS 261955Z 10003KT 9999 SCT040 BKN100 19/15 Q1014 RMK BKN VIS MIN 9999 WIND THR26 00000KT WIND THR08 00000KT BLU =
TAF LIPS 262000Z 2621/2706 14005KT 9999 SCT040 BKN060 TEMPO 2621/2706 5000 RA LIPX 262020Z 08004KT 9999 FEW020 BKN080 18/14 Q1013 =
TAF LIPX 262000Z 2621/2706 VRB05KT 9999 SCT030 BKN070 TEMPO 2702/2706 RA LIPY 262003Z 10007KT 010V160 9999 -RA SCT015 BKN030 16/15 Q1012 RERA =
TAF LIPY 261700Z 2618/2718 12010KT 6000 RA SCT010 BKN030 BECMG 2710/2712 NSW BECMG 2716/2718 VRB05KT LIPZ 262020Z 15005KT 120V190 9999 FEW055 19/15 Q1014 NOSIG =
TAF LIPZ 261700Z 2618/2724 15008KT 9999 SCT020 BECMG 2700/2703 05012KT TEMPO 2700/2709 3000 RA BKN014 TEMPO 2709/2724 SHRA LIVC 261955Z 07027KT 0000 -RA FG VV/// 05/04 Q1015 RMK MON INVIS VAL INVIS VIS MIN 0000 =
LIVD 261755Z /////KT 9999 BKN030 17/08 Q1017 =
LIVE 261955Z 00000KT CAVOK 10/06 Q1017 RMK FEW FEW080 VIS MIN 9999 =
LIVF 261955Z 09008KT 0800 -RA FG VV/// 13/12 Q1010 RMK MON INVIS VAL INVIS VIS MIN 0800 =
LIVO 261755Z 26005KT 9999 BKN030 13/11 Q1015 RMK BKN VIS MIN 9999 =
LIVP 261955Z 16003KT 0000 -RA FG VV/// 06/04 Q1018 RMK MON INVIS VAL INVIS VIS MIN 0000 =
LIVR 261655Z 14004KT 9999 BKN020 12/02 Q1018 RMK BKN MON CLD SCT VIS MIN 9999 =
LIVT 261755Z 05002KT 9999 BKN040 19/18 Q1013 RMK BKN QUK 1 QUL 0 VIS MAR 10 KM VIS MIN 9999 =
LIMC 262020Z 16004KT 9999 BKN070 19/13 Q1013 NOSIG =
TAF LIMC 261700Z 2618/2724 VRB05KT 9999 SCT030 SCT060 TEMPO 2618/2621 SHRA BECMG 2708/2710 RA LIME 262020Z 02004KT 320V050 9999 SCT050 BKN090 18/15 Q1014 NOSIG =
TAF LIME 261700Z 2618/2718 VRB05KT 9999 SCT030 BKN070 TEMPO 2618/2621 SHRA BECMG 2705/2707 RA LIMF 262020Z 31006KT CAVOK 17/12 Q1013 =
TAF LIMF 261700Z 2618/2718 VRB05KT 9999 SCT030 BKN070 TEMPO 2712/2718 RA LIMG 261650Z 02013G26KT 9999 SCT040 BKN075 20/11 Q1011 =
LIMH 261955Z /////KT 0100 -SN FZFG VV/// M03/M03 Q1021 RMK MON INVIS VAL INVIS VIS MIN 0100 =
LIMJ 262020Z 01005KT 310V070 9999 FEW035 BKN070 22/11 Q1011 =
TAF LIMJ 261700Z 2618/2718 03010KT 9999 SCT030 BKN070 BECMG 2704/2706 RA LIMK 261955Z 32004KT CAVOK 15/10 Q1014 =
LIML 262020Z 11004KT 070V150 9999 BKN080 20/14 Q1013 NOSIG =
TAF LIML 261700Z 2618/2718 VRB05KT 9999 SCT030 BKN070 TEMPO 2618/2621 SHRA BECMG 2705/2707 RA LIMS 261755Z 21003KT 9999 SCT020 SCT070 19/19 Q1012 RMK BKN VIS MIN 9999 WIND THR30 21003KT BLU =
LIMU 261955Z 10012KT 9999 FEW028 19/10 Q1011 RMK OVC SCT060 QUK / QUL / VIS MAR 20 KM VIS MIN 9999 =
LIMY 261755Z 23013KT 9000 BKN015 13/12 Q1014 RMK OVC SCT060 VAL FOSCHIA VIS MIN 9000 =
TAF
TAF LIPB 261700Z 2618/2718 VRB05KT 9999 FEW040 SCT060 TEMPO 2712/2718 SHRA =
TAF LIPC 262000Z 2621/2706 07010KT 9999 SCT010 BKN025 TEMPO 2621/2706 5000 RA PROB30 TEMPO 2621/2706 07010G25KT 3000 SHRA FEW020CB BKN030 =
TAF LIPE 261700Z 2618/2718 07010KT 9999 SCT020 BKN040 BECMG 2618/2718 4000 RA BKN010 BKN020 =
TAF LIPH 261700Z 2618/2718 VRB06KT 9999 SCT020 TEMPO 2700/2709 3000 RA BKN014 BECMG 2708/2710 04010KT TEMPO 2709/2718 SHRA =
TAF LIPL 262000Z 2621/2706 12008KT 9999 SCT030 BKN050 TEMPO 2700/2706 5000 RA =
TAF LIPO 261700Z 2618/2718 VRB05KT 9999 SCT030 BKN070 TEMPO 2618/2621 SHRA BECMG 2704/2706 RA =
TAF LIPQ 261700Z 2618/2718 VRB05KT 9999 SCT020 BKN060 TEMPO 2706/2718 RA =
TAF LIPR 262000Z 2621/2706 10010KT 5000 RA BR SCT010 BKN020 =
TAF LIPS 262000Z 2621/2706 14005KT 9999 SCT040 BKN060 TEMPO 2621/2706 5000 RA =
TAF LIPX 262000Z 2621/2706 VRB05KT 9999 SCT030 BKN070 TEMPO 2702/2706 RA =
TAF LIPY 261700Z 2618/2718 12010KT 6000 RA SCT010 BKN030 BECMG 2710/2712 NSW BECMG 2716/2718 VRB05KT =
TAF LIPZ 261700Z 2618/2724 15008KT 9999 SCT020 BECMG 2700/2703 05012KT TEMPO 2700/2709 3000 RA BKN014 TEMPO 2709/2724 SHRA =
TAF LIMC 261700Z 2618/2724 VRB05KT 9999 SCT030 SCT060 TEMPO 2618/2621 SHRA BECMG 2708/2710 RA =
TAF LIME 261700Z 2618/2718 VRB05KT 9999 SCT030 BKN070 TEMPO 2618/2621 SHRA BECMG 2705/2707 RA =
TAF LIMF 261700Z 2618/2718 VRB05KT 9999 SCT030 BKN070 TEMPO 2712/2718 RA =
TAF LIMJ 261700Z 2618/2718 03010KT 9999 SCT030 BKN070 BECMG 2704/2706 RA =
TAF LIML 261700Z 2618/2718 VRB05KT 9999 SCT030 BKN070 TEMPO 2618/2621 SHRA BECMG 2705/2707 RA =
SR / SS: 03:31 / 18:48 UTC (Effemeridi Aeroporto di Padova - LIPU 2019-05-26)

Immagini e previsioni meteo non aeronautiche

 

 

Immagini dal Radar Meteorologico del sito ARPAV. Orario UTC.

 

Immagine dal sito Meteo Sat Online

 

Legenda codici ICAO del nord Italia

 

In ordine di codice   In ordine di località
LIMC
Milano / Malpensa LIMG Albenga
LIME Bergamo / Orio Al Serio LIPA Aviano
LIMF Torino / Caselle LIME Bergamo / Orio Al Serio
LIMG Albenga LIPE Bologna / Borgo Panigale
LIMH Pian Rosa LIPB Bolzano
LIMJ Genova / Sestri LIPL Brescia / Ghedi
LIMK Torino / Bric Della Croce LIPO Brescia / Montichiari
LIML Milano / Linate LIMU Capo Mele
LIMN Novara / Cameri LIPC Cervia
LIMO Monte Bisbino LIVD Dobbiaco
LIMS Piacenza LIPP Dova Area Control Center
LIMT Passo Della Cisa LIPY Falconara
LIMU Capo Mele LIPF Ferrara
LIMV Passo Dei Giovi LIPK Forli
LIMY Monte Malanotte LIVF Frontone
LIPA Aviano LIMJ Genova / Sestri
LIPB Bolzano LIML Milano / Linate
LIPC Cervia
LIMC
Milano / Malpensa
LIPD Udine / Campoformido LIMO Monte Bisbino
LIPE Bologna / Borgo Panigale LIVC Monte Cimone
LIPF Ferrara LIMY Monte Malanotte
LIPH Treviso / S. Angelo LIMN Novara / Cameri
LIPI Udine / Rivolto LIPU Padova
LIPK Forli LIVP Paganella
LIPL Brescia / Ghedi LIMV Passo Dei Giovi
LIPO Brescia / Montichiari LIMT Passo Della Cisa
LIPP Dova Area Control Center LIVR Passo Rolle
LIPQ Ronchi Dei Legionari LIMS Piacenza
LIPR Rimini LIMH Pian Rosa
LIPS Treviso / Istrana LIVM Punta Marina
LIPT Vicenza LIVE Resia Pass
LIPU Padova LIPR Rimini
LIPX Verona / Villafranca LIPQ Ronchi Dei Legionari
LIPY Falconara LIVO Tarvisio
LIPZ Venezia / Tessera LIMK Torino / Bric Della Croce
LIVC Monte Cimone LIMF Torino / Caselle
LIVD Dobbiaco LIPS Treviso / Istrana
LIVE Resia Pass LIPH Treviso / S. Angelo
LIVF Frontone LIVT
Trieste
LIVM Punta Marina LIPD Udine / Campoformido
LIVO Tarvisio LIPI Udine / Rivolto
LIVP Paganella LIPZ Venezia / Tessera
LIVR Passo Rolle LIPX Verona / Villafranca
LIVT Trieste LIPT Vicenza

 

 

 

 

 

 

 

 

 

 

 

 

 

 

 

 

 

 

 

 

 

 

 

 

 

 

 

 

 

 

 

 

 

 

 

 

 

 

 

 

 

 

 

 

 

 

 

 

 

 

 

 

 

 

 

 

 

 

 

 

L'Aeroclub di Padova si limita a riportare informazioni fornite da terze parti, e non ha quindi alcuna responsabilità sul contenuto. Per la pianificazione dei propri voli si raccomanda l'utilizzo delle fonti ufficiali.

Copyright 2011. Free joomla templates | © Aeroclub Padova - Scuola di Volo, Ditta di manutenzione, CAMO Via Sorio, 89 - 35141 Padova Tel. 049 8718599 Fax 049 8717699 info@aeroclubpadova.it